Time;durP1;ratioP1;P1;durP2;ratioP2;P2;SDS_P1;SDS_P2;PMS_P1;PMS_P2;Temp;Humidity;BMP_temperature;BMP_pressure;BME280_temperature;BME280_humidity;BME280_pressure;Samples;Min_cycle;Max_cycle;Signal;HPM_P1;HPM_P2
2022/11/14 00:00:04;;;;;;;53.33;21.83;;;;;;;4.46;100.00;101614.66;4943736;29;21050;-71
2022/11/14 00:02:50;;;;;;;49.83;21.77;;;;;;;4.45;100.00;101614.63;4942692;28;20214;-70
2022/11/14 00:05:40;;;;;;;56.70;22.10;;;;;;;4.45;100.00;101612.94;4945145;28;20245;-71
2022/11/14 00:08:26;;;;;;;52.77;21.97;;;;;;;4.43;100.00;101608.59;4944167;28;20214;-69
2022/11/14 00:11:11;;;;;;;56.37;22.43;;;;;;;4.41;100.00;101602.53;4939079;28;20214;-69
2022/11/14 00:13:56;;;;;;;56.93;21.60;;;;;;;4.33;100.00;101599.84;4940272;28;20795;-71
2022/11/14 00:16:41;;;;;;;57.50;21.50;;;;;;;4.31;100.00;101599.81;4943886;28;20631;-71
2022/11/14 00:19:27;;;;;;;50.57;20.60;;;;;;;4.24;100.00;101590.25;4942035;29;20265;-70
2022/11/14 00:22:12;;;;;;;57.70;21.97;;;;;;;4.21;100.00;101597.94;4945465;28;20240;-71
2022/11/14 00:24:58;;;;;;;50.47;20.77;;;;;;;4.17;100.00;101585.84;4941264;28;20280;-70
2022/11/14 00:27:43;;;;;;;53.20;20.53;;;;;;;4.12;100.00;101582.31;4943649;28;20384;-71
2022/11/14 00:30:28;;;;;;;53.97;20.60;;;;;;;4.05;100.00;101573.59;4941688;28;20210;-71
2022/11/14 00:33:13;;;;;;;50.40;20.70;;;;;;;3.96;100.00;101569.16;4941750;28;21353;-71
2022/11/14 00:35:59;;;;;;;52.97;21.63;;;;;;;3.90;100.00;101571.63;4942525;29;20289;-71
2022/11/14 00:38:44;;;;;;;49.77;20.50;;;;;;;3.86;100.00;101577.59;4942041;29;20217;-69
2022/11/14 00:41:30;;;;;;;54.57;21.57;;;;;;;3.83;100.00;101576.66;4942624;28;20242;-70
2022/11/14 00:44:15;;;;;;;52.63;21.03;;;;;;;3.79;100.00;101568.88;4939596;29;20576;-70
2022/11/14 00:47:00;;;;;;;57.60;21.07;;;;;;;3.82;100.00;101564.59;4944427;28;20814;-71
2022/11/14 00:49:45;;;;;;;50.73;19.73;;;;;;;3.83;100.00;101561.19;4941946;28;20212;-70
2022/11/14 00:52:30;;;;;;;58.57;20.50;;;;;;;3.82;100.00;101565.50;4941390;28;20718;-70
2022/11/14 00:55:15;;;;;;;49.27;21.23;;;;;;;3.82;100.00;101557.75;4942099;28;20584;-72
2022/11/14 00:58:02;;;;;;;58.50;21.23;;;;;;;3.83;100.00;101556.03;4943184;28;20209;-70
2022/11/14 01:00:47;;;;;;;56.27;20.43;;;;;;;3.87;100.00;101557.81;4940360;28;20707;-72
2022/11/14 01:03:33;;;;;;;52.17;20.20;;;;;;;3.89;100.00;101556.16;4948777;28;20641;-70
2022/11/14 01:06:19;;;;;;;57.83;20.70;;;;;;;3.89;100.00;101556.16;4942192;28;20556;-71
2022/11/14 01:09:04;;;;;;;60.70;21.40;;;;;;;3.87;100.00;101548.38;4943329;28;20276;-70
2022/11/14 01:11:49;;;;;;;56.90;21.50;;;;;;;3.86;100.00;101549.22;4942072;28;20228;-71
2022/11/14 01:14:35;;;;;;;62.97;20.93;;;;;;;3.86;100.00;101543.19;4940094;28;20266;-71
2022/11/14 01:17:20;;;;;;;54.77;20.37;;;;;;;3.87;100.00;101542.31;4943061;28;20342;-71
2022/11/14 01:20:05;;;;;;;50.53;19.13;;;;;;;3.84;100.00;101540.56;4938955;28;20269;-70
2022/11/14 01:22:50;;;;;;;53.03;20.20;;;;;;;3.84;100.00;101535.41;4942989;28;20300;-71
2022/11/14 01:25:36;;;;;;;57.57;21.80;;;;;;;3.85;100.00;101524.25;4941460;28;20591;-71
2022/11/14 01:28:22;;;;;;;56.33;21.30;;;;;;;3.86;100.00;101520.81;4941627;28;20683;-70
2022/11/14 01:31:10;;;;;;;52.93;18.97;;;;;;;3.88;100.00;101516.56;4941524;28;20213;-71
2022/11/14 01:33:55;;;;;;;60.87;21.23;;;;;;;3.90;100.00;101516.59;4941894;28;20318;-71
2022/11/14 01:36:40;;;;;;;50.50;18.23;;;;;;;3.91;100.00;101510.59;4933314;29;20372;-71
2022/11/14 01:39:26;;;;;;;61.27;20.30;;;;;;;3.91;100.00;101510.59;4942699;28;20221;-70
2022/11/14 01:42:10;;;;;;;64.50;21.00;;;;;;;3.89;100.00;101507.13;4938570;28;20287;-71
2022/11/14 01:44:55;;;;;;;49.77;18.87;;;;;;;3.88;100.00;101502.78;4941514;28;21397;-70
2022/11/14 01:47:42;;;;;;;60.53;21.50;;;;;;;3.87;100.00;101507.09;4943289;28;20240;-71
2022/11/14 01:50:28;;;;;;;61.53;21.80;;;;;;;3.88;100.00;101500.22;4942371;28;20618;-71
2022/11/14 01:53:13;;;;;;;56.50;21.50;;;;;;;3.87;100.00;101499.34;4943190;28;20310;-71
2022/11/14 01:56:02;;;;;;;56.90;20.47;;;;;;;3.85;100.00;101498.44;4940209;29;20232;-71
2022/11/14 01:59:05;;;;;;;56.83;21.13;;;;;;;3.77;100.00;101494.91;4940509;29;20261;-72
2022/11/14 02:01:52;;;;;;;54.33;19.30;;;;;;;3.77;100.00;101482.00;4943376;29;20495;-71
2022/11/14 02:04:43;;;;;;;52.30;20.37;;;;;;;3.72;100.00;101483.63;4942402;29;20695;-71
2022/11/14 02:07:33;;;;;;;53.47;20.10;;;;;;;3.66;100.00;101481.84;4938241;29;20234;-71
2022/11/14 02:10:20;;;;;;;55.60;20.43;;;;;;;3.66;100.00;101473.19;4940856;29;20209;-70
2022/11/14 02:13:06;;;;;;;59.97;19.83;;;;;;;3.68;100.00;101468.97;4944963;28;20355;-71
2022/11/14 02:15:51;;;;;;;64.60;21.83;;;;;;;3.71;100.00;101463.81;4941788;29;20805;-69
2022/11/14 02:18:37;;;;;;;57.83;21.20;;;;;;;3.74;100.00;101462.16;4945245;28;20237;-69
2022/11/14 02:21:23;;;;;;;62.63;21.47;;;;;;;3.77;100.00;101464.78;4948030;28;20279;-71
2022/11/14 02:24:10;;;;;;;62.70;22.00;;;;;;;3.81;100.00;101460.56;4947412;28;20215;-71
2022/11/14 02:26:55;;;;;;;55.17;20.23;;;;;;;3.79;100.00;101455.38;4945145;29;20606;-71
2022/11/14 02:29:41;;;;;;;61.30;21.37;;;;;;;3.82;100.00;101467.47;4943751;28;20349;-71
2022/11/14 02:32:26;;;;;;;56.50;20.97;;;;;;;3.81;100.00;101460.56;4944963;28;20213;-71
2022/11/14 02:35:11;;;;;;;53.93;21.63;;;;;;;3.81;100.00;101449.38;4942908;29;20346;-71
2022/11/14 02:37:58;;;;;;;69.70;22.93;;;;;;;3.78;100.00;101450.19;4945600;29;20214;-71
2022/11/14 02:40:43;;;;;;;57.37;21.27;;;;;;;3.77;100.00;101445.88;4942468;28;20224;-71
2022/11/14 02:43:28;;;;;;;87.83;31.17;;;;;;;3.79;100.00;101454.50;4942785;29;20217;-69
2022/11/14 02:46:13;;;;;;;61.70;21.47;;;;;;;3.79;100.00;101446.75;4943864;28;20233;-71
2022/11/14 02:48:58;;;;;;;49.60;20.50;;;;;;;3.80;100.00;101443.34;4942406;28;20284;-70
2022/11/14 02:51:43;;;;;;;59.60;21.87;;;;;;;3.79;100.00;101429.56;4943915;28;20338;-70
2022/11/14 02:54:29;;;;;;;53.87;18.90;;;;;;;3.80;100.00;101427.88;4945816;28;20304;-71
2022/11/14 02:57:14;;;;;;;60.53;22.47;;;;;;;3.83;100.00;101419.31;4944058;28;20225;-70
2022/11/14 02:59:59;;;;;;;66.47;21.70;;;;;;;3.84;100.00;101432.22;4949117;28;20213;-71
2022/11/14 03:02:44;;;;;;;62.57;22.23;;;;;;;3.87;100.00;101421.06;4943640;28;20770;-70
2022/11/14 03:05:29;;;;;;;58.67;21.57;;;;;;;3.89;100.00;101414.25;4944025;28;20847;-69
2022/11/14 03:08:14;;;;;;;57.43;20.10;;;;;;;3.88;100.00;101420.22;4942530;28;20261;-69
2022/11/14 03:11:05;;;;;;;64.30;22.27;;;;;;;3.87;100.00;101418.47;4944835;28;20529;-69
2022/11/14 03:13:50;;;;;;;59.17;21.80;;;;;;;3.88;100.00;101423.66;4945396;28;20706;-71
2022/11/14 03:16:35;;;;;;;61.77;21.07;;;;;;;3.85;100.00;101415.03;4946219;28;20274;-71
2022/11/14 03:19:20;;;;;;;53.50;21.83;;;;;;;3.84;100.00;101414.16;4944111;28;20727;-70
2022/11/14 03:22:05;;;;;;;54.13;20.00;;;;;;;3.84;100.00;101415.88;4937016;28;20237;-71
2022/11/14 03:24:50;;;;;;;70.23;22.90;;;;;;;3.85;100.00;101408.13;4942439;28;20758;-70
2022/11/14 03:30:22;;;;;;;60.87;21.00;;;;;;;3.87;100.00;101421.06;4881211;29;20223;-70
2022/11/14 03:33:07;;;;;;;60.30;21.43;;;;;;;3.83;100.00;101417.56;4887414;29;20695;-69
2022/11/14 03:35:53;;;;;;;52.53;19.57;;;;;;;3.83;100.00;101417.56;4891573;29;20263;-71
2022/11/14 03:38:38;;;;;;;52.83;19.50;;;;;;;3.82;100.00;101415.84;4883956;29;20218;-70
2022/11/14 03:41:23;;;;;;;58.20;20.20;;;;;;;3.83;100.00;101411.56;4887094;29;20592;-71
2022/11/14 03:44:08;;;;;;;59.77;20.90;;;;;;;3.84;100.00;101415.88;4882616;29;20229;-70
2022/11/14 03:46:54;;;;;;;53.30;20.67;;;;;;;3.87;100.00;101416.78;4887845;29;20372;-70
2022/11/14 03:49:39;;;;;;;57.40;21.10;;;;;;;3.86;100.00;101409.88;4883640;29;20597;-71
2022/11/14 03:52:25;;;;;;;56.77;20.60;;;;;;;3.89;100.00;101411.66;4889699;29;20585;-70
2022/11/14 03:55:10;;;;;;;49.47;18.70;;;;;;;3.89;100.00;101404.78;4882026;29;20215;-71
2022/11/14 03:57:55;;;;;;;55.57;20.50;;;;;;;3.88;100.00;101402.19;4885508;29;20244;-71
2022/11/14 04:00:40;;;;;;;51.00;19.57;;;;;;;3.87;100.00;101403.00;4882798;29;20220;-70
2022/11/14 04:03:27;;;;;;;57.57;20.73;;;;;;;3.86;100.00;101393.56;4888859;29;20311;-70
2022/11/14 04:06:12;;;;;;;52.70;19.37;;;;;;;3.83;100.00;101390.91;4890225;29;20231;-71
2022/11/14 04:08:57;;;;;;;55.40;20.87;;;;;;;3.84;100.00;101393.53;4884723;29;20216;-70
2022/11/14 04:11:41;;;;;;;53.00;20.80;;;;;;;3.83;100.00;101389.19;4885546;29;20223;-70
2022/11/14 04:14:26;;;;;;;52.63;18.97;;;;;;;3.82;100.00;101390.06;4881038;29;20280;-71
2022/11/14 04:17:11;;;;;;;53.13;19.13;;;;;;;3.83;100.00;101388.34;4886373;29;20263;-69
2022/11/14 04:19:58;;;;;;;52.57;20.27;;;;;;;3.80;100.00;101391.75;4882733;29;20247;-71
2022/11/14 04:22:43;;;;;;;53.87;18.77;;;;;;;3.78;100.00;101385.69;4879181;29;20239;-70
2022/11/14 04:25:28;;;;;;;52.83;18.33;;;;;;;3.76;100.00;101388.28;4883468;29;20708;-71
2022/11/14 04:28:14;;;;;;;50.83;18.93;;;;;;;3.77;100.00;101390.00;4880223;29;20240;-70
2022/11/14 04:30:59;;;;;;;50.97;18.37;;;;;;;3.76;100.00;101384.81;4881359;29;20901;-70
2022/11/14 04:33:44;;;;;;;49.83;19.93;;;;;;;3.77;100.00;101387.41;4878948;29;20208;-71
2022/11/14 04:36:31;;;;;;;50.67;19.07;;;;;;;3.78;100.00;101385.69;4887943;29;20578;-68
2022/11/14 04:39:15;;;;;;;50.83;19.57;;;;;;;3.78;100.00;101384.00;4884990;29;20273;-71
2022/11/14 04:42:00;;;;;;;50.07;18.50;;;;;;;3.79;100.00;101380.56;4891747;29;20216;-69
2022/11/14 04:44:45;;;;;;;52.00;20.23;;;;;;;3.80;100.00;101368.53;4886862;29;20219;-70
2022/11/14 04:47:30;;;;;;;45.97;19.30;;;;;;;3.80;100.00;101368.53;4886120;29;20372;-71
2022/11/14 04:50:15;;;;;;;51.27;19.00;;;;;;;3.81;100.00;101366.81;4895645;29;20258;-71
2022/11/14 04:53:02;;;;;;;57.67;20.87;;;;;;;3.77;100.00;101353.03;4885063;29;20354;-71
2022/11/14 04:55:47;;;;;;;56.17;19.40;;;;;;;3.80;100.00;101365.97;4879650;29;20220;-70
2022/11/14 04:58:32;;;;;;;58.73;20.73;;;;;;;3.77;100.00;101363.34;4882726;29;20276;-70
2022/11/14 05:01:17;;;;;;;52.80;19.93;;;;;;;3.82;100.00;101359.09;4879439;29;20308;-71
2022/11/14 05:04:03;;;;;;;53.67;20.80;;;;;;;3.83;100.00;101362.53;4884438;29;20269;-70
2022/11/14 05:06:48;;;;;;;56.93;19.47;;;;;;;3.80;100.00;101360.81;4885222;29;20646;-70
2022/11/14 05:09:35;;;;;;;61.33;20.27;;;;;;;3.77;100.00;101346.13;4883682;29;20240;-70
2022/11/14 05:12:20;;;;;;;54.47;18.83;;;;;;;3.82;100.00;101353.06;4873272;29;20212;-70
2022/11/14 05:15:07;;;;;;;44.47;17.50;;;;;;;3.80;100.00;101355.66;4884026;29;20725;-70
2022/11/14 05:17:51;;;;;;;55.93;18.80;;;;;;;3.84;100.00;101356.56;4881178;29;20437;-73
2022/11/14 05:20:37;;;;;;;55.50;20.87;;;;;;;3.81;100.00;101339.31;4889750;29;20215;-72
2022/11/14 05:23:23;;;;;;;47.93;17.73;;;;;;;3.75;100.00;101328.91;4889003;29;20644;-71
2022/11/14 05:26:12;;;;;;;55.67;19.57;;;;;;;3.76;100.00;101333.22;4886658;29;20218;-71
2022/11/14 05:28:58;;;;;;;52.47;20.10;;;;;;;3.77;100.00;101334.97;4889742;29;20239;-70
2022/11/14 05:31:42;;;;;;;50.57;19.93;;;;;;;3.81;100.00;101331.56;4891280;29;20687;-70
2022/11/14 05:34:28;;;;;;;49.23;18.47;;;;;;;3.81;100.00;101322.97;4882907;29;21792;-71
2022/11/14 05:37:13;;;;;;;46.83;18.27;;;;;;;3.72;100.00;101319.41;4882931;29;20240;-71
2022/11/14 05:39:58;;;;;;;45.67;17.20;;;;;;;3.76;100.00;101322.91;4884404;29;20232;-69
2022/11/14 05:42:44;;;;;;;50.70;18.33;;;;;;;3.75;100.00;101318.59;4886921;29;20240;-71
2022/11/14 05:45:30;;;;;;;50.87;18.00;;;;;;;3.69;100.00;101321.94;4878852;29;20211;-70
2022/11/14 05:48:15;;;;;;;50.67;18.50;;;;;;;3.66;100.00;101316.75;4880835;29;20228;-71
2022/11/14 05:51:03;;;;;;;46.33;17.53;;;;;;;3.68;100.00;101316.78;4886501;29;20831;-69
2022/11/14 05:53:48;;;;;;;49.40;17.83;;;;;;;3.60;100.00;101317.53;4885250;29;20441;-70
2022/11/14 05:56:33;;;;;;;46.00;17.87;;;;;;;3.59;100.00;101308.06;4883851;29;20231;-71
2022/11/14 05:59:19;;;;;;;39.00;16.60;;;;;;;3.63;100.00;101318.44;4880127;29;20268;-71
2022/11/14 06:02:04;;;;;;;39.47;16.77;;;;;;;3.55;100.00;101318.31;4882522;29;20215;-69
2022/11/14 06:04:49;;;;;;;38.63;17.07;;;;;;;3.57;100.00;101319.19;4879947;29;20695;-71
2022/11/14 06:07:34;;;;;;;42.47;16.83;;;;;;;3.57;100.00;101319.19;4882171;29;20236;-70
2022/11/14 06:10:19;;;;;;;39.00;16.00;;;;;;;3.51;100.00;101330.31;4886050;29;20289;-70
2022/11/14 06:13:04;;;;;;;40.93;15.93;;;;;;;3.46;100.00;101319.06;4883615;29;20246;-70
2022/11/14 06:15:51;;;;;;;43.17;14.80;;;;;;;3.36;100.00;101312.91;4881706;29;20605;-70
2022/11/14 06:18:36;;;;;;;44.93;16.47;;;;;;;3.38;100.00;101325.81;4885197;29;20786;-71
2022/11/14 06:21:23;;;;;;;41.73;15.47;;;;;;;3.38;100.00;101320.69;4889385;29;20709;-71
2022/11/14 06:24:09;;;;;;;46.27;18.23;;;;;;;3.40;100.00;101327.56;4889840;29;20309;-69
2022/11/14 06:26:54;;;;;;;48.63;17.43;;;;;;;3.43;100.00;101337.09;4881150;29;20764;-71
2022/11/14 06:29:38;;;;;;;46.10;16.07;;;;;;;3.45;100.00;101330.22;4886128;29;20227;-70
2022/11/14 06:32:25;;;;;;;46.07;16.47;;;;;;;3.50;100.00;101332.84;4889151;29;20765;-71
2022/11/14 06:35:09;;;;;;;47.80;17.47;;;;;;;3.53;100.00;101320.00;4887597;29;20344;-71
2022/11/14 06:37:54;;;;;;;44.73;18.20;;;;;;;3.51;100.00;101335.47;4887281;29;20952;-70
2022/11/14 06:40:39;;;;;;;48.40;17.37;;;;;;;3.50;100.00;101328.59;4891024;29;20220;-71
2022/11/14 06:43:24;;;;;;;47.57;16.83;;;;;;;3.55;100.00;101338.94;4884812;29;20251;-71
2022/11/14 06:46:11;;;;;;;51.13;17.90;;;;;;;3.55;100.00;101334.69;4887582;29;20215;-70
2022/11/14 06:48:57;;;;;;;52.13;18.40;;;;;;;3.56;100.00;101336.38;4888327;29;20226;-71
2022/11/14 06:51:42;;;;;;;43.10;16.40;;;;;;;3.57;100.00;101342.41;4885872;29;20216;-71
2022/11/14 06:54:27;;;;;;;41.57;16.90;;;;;;;3.56;100.00;101335.53;4890696;29;20252;-71
2022/11/14 06:57:12;;;;;;;43.80;17.43;;;;;;;3.52;100.00;101350.09;4890671;29;20728;-71
2022/11/14 06:59:57;;;;;;;41.33;16.70;;;;;;;3.53;100.00;101353.53;4882377;29;20219;-69
2022/11/14 07:02:45;;;;;;;45.27;17.10;;;;;;;3.57;100.00;101356.19;4882577;29;20240;-70
2022/11/14 07:05:32;;;;;;;38.83;16.93;;;;;;;3.56;100.00;101351.88;4886317;29;20219;-70
2022/11/14 07:08:17;;;;;;;36.97;16.73;;;;;;;3.58;100.00;101346.72;4888173;29;20298;-71
2022/11/14 07:11:03;;;;;;;36.73;16.70;;;;;;;3.56;100.00;101331.22;4889555;29;20272;-71
2022/11/14 07:13:48;;;;;;;42.37;17.43;;;;;;;3.60;100.00;101347.63;4889455;29;20224;-71
2022/11/14 07:16:35;;;;;;;42.10;16.80;;;;;;;3.60;100.00;101347.63;4889775;29;20372;-70
2022/11/14 07:19:19;;;;;;;53.83;17.27;;;;;;;3.54;100.00;101347.53;4885215;29;20569;-71
2022/11/14 07:22:06;;;;;;;43.10;17.60;;;;;;;3.56;100.00;101343.28;4894331;29;20215;-70
2022/11/14 07:24:51;;;;;;;48.83;17.13;;;;;;;3.52;100.00;101341.50;4893331;29;20218;-70
2022/11/14 07:27:36;;;;;;;41.67;18.30;;;;;;;3.58;100.00;101331.25;4882924;29;20247;-71
2022/11/14 07:30:21;;;;;;;43.37;17.13;;;;;;;3.57;100.00;101342.41;4893431;29;20735;-71
2022/11/14 07:33:06;;;;;;;47.83;20.47;;;;;;;3.62;100.00;101338.19;4889392;29;20207;-71
2022/11/14 07:35:51;;;;;;;46.87;18.40;;;;;;;3.67;100.00;101333.09;4889423;29;20219;-71
2022/11/14 07:38:38;;;;;;;51.43;18.50;;;;;;;3.63;100.00;101328.75;4894839;29;20216;-70
2022/11/14 07:41:23;;;;;;;51.20;20.00;;;;;;;3.64;100.00;101339.09;4891252;29;20689;-71
2022/11/14 07:44:08;;;;;;;48.47;19.90;;;;;;;3.66;100.00;101344.25;4890389;29;20330;-71
2022/11/14 07:46:53;;;;;;;55.60;19.53;;;;;;;3.66;100.00;101339.09;4891964;29;20238;-71
2022/11/14 07:49:38;;;;;;;45.10;18.23;;;;;;;3.68;100.00;101337.44;4887028;29;20230;-71
2022/11/14 07:52:23;;;;;;;55.40;19.83;;;;;;;3.70;100.00;101330.56;4891999;29;20221;-71
2022/11/14 07:55:09;;;;;;;55.50;21.03;;;;;;;3.73;100.00;101331.47;4885394;29;20243;-70
2022/11/14 07:57:59;;;;;;;48.10;19.40;;;;;;;3.76;100.00;101333.22;4884375;29;20240;-70
2022/11/14 08:00:44;;;;;;;55.57;20.43;;;;;;;3.80;100.00;101332.44;4881572;29;20294;-71
2022/11/14 08:03:29;;;;;;;52.37;19.93;;;;;;;3.78;100.00;101314.34;4888196;29;20800;-69
2022/11/14 08:06:16;;;;;;;58.37;20.53;;;;;;;3.81;100.00;101316.09;4888796;29;20212;-70
2022/11/14 08:09:01;;;;;;;48.97;19.50;;;;;;;3.90;100.00;101321.34;4894487;29;20215;-70
2022/11/14 08:11:47;;;;;;;49.20;21.40;;;;;;;4.00;100.00;101330.09;4888633;29;20582;-71
2022/11/14 08:14:32;;;;;;;45.97;20.67;;;;;;;4.04;100.00;101337.00;4887817;29;20220;-70
2022/11/14 08:17:17;;;;;;;51.63;20.83;;;;;;;3.95;100.00;101329.16;4884661;29;20744;-71
2022/11/14 08:20:03;;;;;;;54.50;21.80;;;;;;;3.95;100.00;101329.16;4895430;29;20685;-71
2022/11/14 08:22:48;;;;;;;52.03;21.27;;;;;;;3.92;100.00;101332.59;4890090;29;20227;-71
2022/11/14 08:25:33;;;;;;;46.67;19.47;;;;;;;3.93;100.00;101323.97;4885404;29;20823;-71
2022/11/14 08:28:20;;;;;;;50.60;20.23;;;;;;;3.99;100.00;101310.28;4895378;29;20649;-71
2022/11/14 08:31:05;;;;;;;58.57;22.63;;;;;;;4.04;100.00;101303.47;4890814;29;20927;-71
2022/11/14 08:33:51;;;;;;;49.03;20.57;;;;;;;4.13;100.00;101313.03;4891759;29;20349;-71
2022/11/14 08:36:36;;;;;;;49.43;22.07;;;;;;;4.18;100.00;101309.63;4888186;29;20303;-71
2022/11/14 08:39:21;;;;;;;55.80;22.07;;;;;;;4.20;100.00;101296.75;4890368;29;20215;-71
2022/11/14 08:42:09;;;;;;;52.03;21.53;;;;;;;4.23;100.00;101301.94;4895048;29;20274;-71
2022/11/14 08:44:55;;;;;;;54.87;22.67;;;;;;;4.31;100.00;101304.59;4893177;29;20211;-71
2022/11/14 08:47:40;;;;;;;60.07;23.43;;;;;;;4.36;100.00;101300.34;4886000;29;20259;-70
2022/11/14 08:50:25;;;;;;;51.80;22.47;;;;;;;4.48;100.00;101300.47;4888992;29;20219;-71
2022/11/14 08:53:10;;;;;;;54.13;22.87;;;;;;;4.62;100.00;101290.28;4890758;29;20246;-71
2022/11/14 08:55:55;;;;;;;57.87;24.30;;;;;;;4.73;100.00;101292.94;4887599;29;20219;-69
2022/11/14 08:58:40;;;;;;;50.50;22.87;;;;;;;4.85;100.00;101295.63;4893013;29;20211;-71
2022/11/14 09:01:27;;;;;;;53.10;22.23;;;;;;;4.96;100.00;101282.84;4885142;29;20337;-71
2022/11/14 09:04:12;;;;;;;55.77;24.83;;;;;;;4.90;100.00;101283.63;4889759;29;20302;-71
2022/11/14 09:06:58;;;;;;;60.63;25.87;;;;;;;5.02;100.00;101298.38;4885465;29;20357;-70
2022/11/14 09:09:43;;;;;;;57.53;24.50;;;;;;;5.07;100.00;101294.09;4883049;29;20211;-71
2022/11/14 09:12:29;;;;;;;57.43;22.80;;;;;;;5.02;100.00;101276.84;4886693;29;20216;-72
2022/11/14 09:15:14;;;;;;;63.77;25.47;;;;;;;5.02;100.00;101282.84;4887078;29;20208;-71
2022/11/14 09:18:00;;;;;;;63.17;24.13;;;;;;;5.05;100.00;101287.19;4889172;29;20285;-71
2022/11/14 09:20:45;;;;;;;55.90;25.30;;;;;;;5.03;100.00;101275.97;4873750;29;20227;-71
2022/11/14 09:23:30;;;;;;;58.67;24.93;;;;;;;5.05;100.00;101280.31;4882316;29;20620;-71
2022/11/14 09:26:17;;;;;;;55.30;26.03;;;;;;;5.03;100.00;101286.31;4881528;29;20362;-71
2022/11/14 09:29:03;;;;;;;51.33;23.23;;;;;;;5.01;100.00;101285.44;4920996;23;20253;-70
2022/11/14 09:31:48;;;;;;;59.67;26.87;;;;;;;5.05;100.00;101275.13;4940275;29;20371;-70
2022/11/14 09:34:36;;;;;;;50.73;21.53;;;;;;;5.06;100.00;101276.00;4940784;29;20855;-70
2022/11/14 09:37:21;;;;;;;48.70;22.90;;;;;;;5.08;100.00;101277.75;4944966;29;20296;-70
2022/11/14 09:40:07;;;;;;;53.97;24.07;;;;;;;5.09;100.00;101278.59;4946320;28;20292;-70
2022/11/14 09:43:05;;;;;;;43.67;20.53;;;;;;;5.14;100.00;101274.34;4941491;29;20310;-70
2022/11/14 09:45:53;;;;;;;47.43;21.57;;;;;;;5.19;100.00;101256.25;4947141;29;20214;-70
2022/11/14 09:48:38;;;;;;;42.27;20.93;;;;;;;5.27;100.00;101265.78;4938085;29;20210;-70
2022/11/14 09:51:29;;;;;;;45.07;21.30;;;;;;;5.31;100.00;101266.66;4942738;28;20213;-69
2022/11/14 09:54:20;;;;;;;47.40;19.90;;;;;;;5.34;100.00;101274.44;4945048;28;20305;-70
2022/11/14 09:57:15;;;;;;;43.03;21.70;;;;;;;5.40;100.00;101279.66;4937539;29;20591;-69
2022/11/14 10:00:00;;;;;;;38.53;20.27;;;;;;;5.44;100.00;101281.41;4943253;29;20245;-69
2022/11/14 10:03:04;;;;;;;39.70;19.97;;;;;;;5.56;100.00;101267.69;4943880;29;20930;-70
2022/11/14 10:06:10;;;;;;;36.47;19.43;;;;;;;5.63;100.00;101266.84;4943458;29;20261;-69
2022/11/14 10:09:12;;;;;;;39.40;19.50;;;;;;;5.73;100.00;101265.16;4943593;29;20209;-70
2022/11/14 10:12:07;;;;;;;36.17;19.07;;;;;;;5.77;100.00;101250.50;4943342;29;20279;-70
2022/11/14 10:15:01;;;;;;;35.73;17.30;;;;;;;5.84;100.00;101255.72;4940156;29;20285;-69
2022/11/14 10:18:02;;;;;;;35.97;18.57;;;;;;;5.93;100.00;101252.28;4940114;28;20282;-69
2022/11/14 10:20:54;;;;;;;39.63;18.93;;;;;;;5.99;100.00;101243.72;4942382;29;20313;-69
2022/11/14 10:23:47;;;;;;;31.47;17.23;;;;;;;6.12;100.00;101244.59;4943362;29;20225;-70
2022/11/14 10:26:38;;;;;;;31.10;17.30;;;;;;;6.17;100.00;101250.66;4937689;28;20214;-69
2022/11/14 10:30:00;;;;;;;27.17;14.83;;;;;;;6.23;100.00;101254.13;4940757;28;20221;-70
2022/11/14 10:33:06;;;;;;;31.10;16.00;;;;;;;6.31;100.00;101256.72;4942151;29;20301;-69
2022/11/14 10:35:57;;;;;;;31.47;15.73;;;;;;;6.39;100.00;101244.66;4942953;29;20738;-70
2022/11/14 10:38:51;;;;;;;28.47;14.43;;;;;;;6.56;100.00;101233.41;4945185;29;20293;-70
2022/11/14 10:41:39;;;;;;;27.43;14.63;;;;;;;6.71;100.00;101230.84;4946218;29;20578;-70
2022/11/14 10:44:31;;;;;;;25.67;14.57;;;;;;;6.85;100.00;101220.44;4945511;29;20260;-70
2022/11/14 10:47:21;;;;;;;25.57;14.77;;;;;;;6.97;100.00;101210.06;4944983;29;20214;-70
2022/11/14 10:50:17;;;;;;;22.10;13.33;;;;;;;7.12;100.00;101216.94;4946153;29;20218;-70
2022/11/14 10:53:13;;;;;;;23.60;12.80;;;;;;;7.19;100.00;101215.19;4947789;28;20246;-69
2022/11/14 10:55:59;;;;;;;24.43;13.03;;;;;;;7.30;100.00;101218.63;4946053;29;20211;-70
2022/11/14 10:58:46;;;;;;;20.30;11.87;;;;;;;7.36;100.00;101202.19;4948777;29;20801;-69
2022/11/14 11:01:37;;;;;;;19.77;12.43;;;;;;;7.41;100.00;101203.03;4942381;29;20608;-70
2022/11/14 11:04:26;;;;;;;22.13;13.03;;;;;;;7.53;100.00;101194.34;4942183;28;20335;-70
2022/11/14 11:13:34;;;;;;;22.20;12.27;;;;;;;7.77;100.00;101191.63;4941985;29;20231;-70
2022/11/14 11:16:23;;;;;;;20.07;11.93;;;;;;;7.87;100.00;101194.16;4941872;29;20211;-70
2022/11/14 11:19:23;;;;;;;20.67;12.40;;;;;;;7.89;100.00;101185.47;4942150;29;20214;-70
2022/11/14 11:22:28;;;;;;;21.90;12.37;;;;;;;7.97;100.00;101185.44;4947740;29;20208;-69
2022/11/14 11:25:24;;;;;;;22.10;12.63;;;;;;;7.96;100.00;101191.50;4943720;29;20259;-69
2022/11/14 11:28:13;;;;;;;22.97;12.60;;;;;;;8.03;100.00;101192.31;4948039;29;20209;-70
2022/11/14 11:31:00;;;;;;;20.60;13.80;;;;;;;8.17;100.00;101172.31;4945273;29;20861;-70
2022/11/14 11:33:49;;;;;;;18.90;11.57;;;;;;;8.19;100.00;101159.31;4943613;28;20287;-70
2022/11/14 11:36:39;;;;;;;23.30;12.90;;;;;;;8.32;100.00;101168.75;4948414;28;20266;-70
2022/11/14 11:39:28;;;;;;;20.57;12.47;;;;;;;8.38;100.00;101158.28;4949163;29;20310;-69
2022/11/14 11:42:19;;;;;;;21.30;11.90;;;;;;;8.46;100.00;101148.72;4945023;29;20300;-70
2022/11/14 11:45:14;;;;;;;20.27;12.13;;;;;;;8.46;100.00;101145.25;4943863;28;20225;-70
2022/11/14 11:48:03;;;;;;;19.37;11.90;;;;;;;8.50;100.00;101146.97;4946074;29;20220;-70
2022/11/14 11:50:50;;;;;;;20.63;11.73;;;;;;;8.55;100.00;101149.50;4945663;28;20335;-70
2022/11/14 11:53:39;;;;;;;19.53;10.97;;;;;;;8.65;100.00;101152.03;4944404;29;20668;-70
2022/11/14 11:56:27;;;;;;;18.53;11.13;;;;;;;8.69;100.00;101156.31;4945106;29;20412;-69
2022/11/14 11:59:23;;;;;;;17.17;11.47;;;;;;;8.75;100.00;101146.72;4943002;29;21317;-70
2022/11/14 12:02:21;;;;;;;18.13;11.40;;;;;;;8.85;100.00;101131.00;4941774;29;20213;-70
2022/11/14 12:05:07;;;;;;;16.43;10.73;;;;;;;8.88;100.00;101132.69;4943917;29;20692;-70
2022/11/14 12:08:00;;;;;;;19.53;11.27;;;;;;;8.97;100.00;101127.41;4947801;28;20221;-69
2022/11/14 12:10:46;;;;;;;19.57;11.23;;;;;;;9.04;100.00;101128.19;4939600;28;20545;-70
2022/11/14 12:14:09;;;;;;;17.70;10.33;;;;;;;9.11;100.00;101124.63;4943834;29;20261;-70
2022/11/14 12:17:14;;;;;;;17.57;11.13;;;;;;;9.15;100.00;101128.94;4949299;29;20209;-70
2022/11/14 12:20:20;;;;;;;18.33;11.00;;;;;;;9.20;100.00;101119.34;4947507;28;20260;-70
2022/11/14 12:23:45;;;;;;;18.37;10.83;;;;;;;9.31;100.00;101124.41;4947168;29;20594;-70
2022/11/14 12:26:44;;;;;;;20.30;11.03;;;;;;;9.36;100.00;101117.41;4925492;28;20213;-70
2022/11/14 12:29:48;;;;;;;17.40;9.97;;;;;;;9.43;100.00;101118.19;4938044;29;20214;-70
2022/11/14 12:32:39;;;;;;;18.50;10.03;;;;;;;9.53;100.00;101116.28;4941676;29;20224;-70
2022/11/14 12:35:29;;;;;;;15.87;11.20;;;;;;;9.55;100.00;101104.13;4947809;29;20221;-70
2022/11/14 12:38:18;;;;;;;15.97;10.63;;;;;;;9.57;100.00;101117.97;4942242;29;20658;-69
2022/11/14 12:41:03;;;;;;;16.97;11.30;;;;;;;9.63;100.00;101115.28;4948528;29;20222;-70
2022/11/14 12:43:48;;;;;;;15.50;9.50;;;;;;;9.64;100.00;101107.47;4946587;28;20230;-70
2022/11/14 12:47:15;;;;;;;17.50;10.93;;;;;;;9.71;100.00;101104.75;4943377;28;20221;-69
2022/11/14 12:50:05;;;;;;;14.70;9.27;;;;;;;9.70;100.00;101095.22;4946593;28;20618;-70